Startpagina
METAR-TAF:

METAR-TAF

Vliegvelden :

Angers, Frankrijk

breedte: 47-33-37N, lengte: 000-18-44W, hoogte: 59 m

Actueel weer

Dit bericht is 17 minuten geleden gemaakt, om 20:00 UTC
Wind 7 kt uit het zuidwesten
Temperatuur 11°C
Vochtigheid 100%
Druk 1029 hPa
Zicht: 5000 m
Geheel bewolkt op 400 ft
nevel

METAR: LFJR 232000Z AUTO 22007KT 5000 BR OVC004 11/11 Q1029

Tijdstip: 21:17 (20:17 UTC)


TAF: ontbreekt

Waarnemingen en weersverwachtingen van meer dan 4000 vliegvelden (METAR en TAF).

De beschikbare stations zijn de gele en rode punten op de kaart.

Ga met uw muis naar het station om de naam te zien.

Klik dan om waarnemingen en weersverwachtingen te zien.

kaart wijzigen: klik op de groene knoppen met een zwart kruis om in te zoomen, op de groene knop met een streepje om uit te zoomen of op de groene pijlen voor aangrenzende kaarten.


METAR-TAF: